createdAt,value
2023-06-07T00:04:33.340Z,23.30
2023-06-07T00:09:35.687Z,23.28
2023-06-07T00:14:38.510Z,23.25
2023-06-07T00:19:41.068Z,23.35
2023-06-07T00:24:43.438Z,23.29
2023-06-07T00:29:46.052Z,23.24
2023-06-07T00:34:48.392Z,23.13
2023-06-07T00:39:50.748Z,22.94
2023-06-07T00:44:53.076Z,22.88
2023-06-07T00:49:55.784Z,22.74
2023-06-07T00:54:59.902Z,22.69
2023-06-07T01:00:04.322Z,22.58
2023-06-07T01:05:08.276Z,22.57
2023-06-07T01:10:10.884Z,22.48
2023-06-07T01:15:14.624Z,22.36
2023-06-07T01:20:24.259Z,22.28
2023-06-07T01:25:27.114Z,22.19
2023-06-07T01:30:33.258Z,22.13
2023-06-07T01:35:36.314Z,22.10
2023-06-07T01:40:39.740Z,22.06
2023-06-07T01:45:43.266Z,22.11
2023-06-07T01:50:45.745Z,22.02
2023-06-07T01:55:57.968Z,21.94
2023-06-07T02:01:18.303Z,21.80
2023-06-07T02:06:32.229Z,21.80
2023-06-07T02:11:36.043Z,21.84
2023-06-07T02:16:38.514Z,21.83
2023-06-07T02:21:40.866Z,21.77
2023-06-07T02:26:44.027Z,21.90
2023-06-07T02:31:49.032Z,21.88
2023-06-07T02:36:51.304Z,21.81
2023-06-07T02:41:53.548Z,21.83
2023-06-07T02:46:55.791Z,21.80
2023-06-07T02:51:58.167Z,21.67
2023-06-07T02:57:00.451Z,21.50
2023-06-07T03:02:02.778Z,21.52
2023-06-07T03:07:05.280Z,21.34
2023-06-07T03:12:08.457Z,21.43
2023-06-07T03:17:10.947Z,21.28
2023-06-07T03:22:13.281Z,21.38
2023-06-07T03:27:15.680Z,21.39
2023-06-07T03:32:18.072Z,21.41
2023-06-07T03:37:20.466Z,21.32
2023-06-07T03:42:22.787Z,21.22
2023-06-07T03:47:25.230Z,21.26
2023-06-07T03:52:27.632Z,21.11
2023-06-07T03:57:29.961Z,21.09
2023-06-07T04:02:32.291Z,20.97
2023-06-07T04:07:34.745Z,21.13
2023-06-07T04:12:37.044Z,21.06
2023-06-07T04:17:39.270Z,21.10
2023-06-07T04:22:41.499Z,21.15
2023-06-07T04:27:47.887Z,21.22
2023-06-07T04:32:50.784Z,21.28
2023-06-07T04:37:53.241Z,21.47
2023-06-07T04:43:19.872Z,21.49
2023-06-07T04:48:27.642Z,21.48
2023-06-07T04:53:30.315Z,21.57
2023-06-07T04:58:35.440Z,21.75
2023-06-07T05:03:42.970Z,21.85
2023-06-07T05:08:45.545Z,21.80
2023-06-07T05:13:50.778Z,21.95
2023-06-07T05:18:54.691Z,22.11
2023-06-07T05:23:57.009Z,22.29
2023-06-07T05:28:59.258Z,22.37
2023-06-07T05:34:01.494Z,22.46
2023-06-07T05:39:04.560Z,22.49
2023-06-07T05:44:06.993Z,22.61
2023-06-07T05:49:09.525Z,22.78
2023-06-07T05:54:11.936Z,22.90
2023-06-07T05:59:14.215Z,22.96
2023-06-07T06:04:18.350Z,23.11
2023-06-07T06:09:21.296Z,23.30
2023-06-07T06:14:24.305Z,23.33
2023-06-07T06:19:26.905Z,23.53
2023-06-07T06:24:29.158Z,23.60
2023-06-07T06:29:32.249Z,23.65
2023-06-07T06:34:34.482Z,23.63
2023-06-07T06:39:36.796Z,23.72
2023-06-07T06:44:39.033Z,23.90
2023-06-07T06:49:41.809Z,23.98
2023-06-07T06:54:44.111Z,23.85
2023-06-07T06:59:47.625Z,24.09
2023-06-07T07:04:52.512Z,24.23
2023-06-07T07:09:55.468Z,24.44
2023-06-07T07:14:57.745Z,24.64
2023-06-07T07:20:00.055Z,24.83
2023-06-07T07:25:02.387Z,24.80
2023-06-07T07:30:07.850Z,25.00
2023-06-07T07:35:10.269Z,25.33
2023-06-07T07:40:14.282Z,25.41
2023-06-07T07:45:16.755Z,25.66
2023-06-07T07:50:19.003Z,25.74
2023-06-07T07:55:21.303Z,25.91
2023-06-07T08:00:25.353Z,26.04
2023-06-07T08:05:27.877Z,26.18
2023-06-07T08:10:30.276Z,26.31
2023-06-07T08:15:33.614Z,26.48
2023-06-07T08:20:37.371Z,26.75
2023-06-07T08:25:39.669Z,26.81
2023-06-07T08:30:43.393Z,26.89
2023-06-07T08:35:45.608Z,27.13
2023-06-07T08:40:47.883Z,27.31
2023-06-07T08:45:51.793Z,27.50
2023-06-07T08:50:57.036Z,27.70
2023-06-07T08:56:00.049Z,27.96
2023-06-07T09:01:02.929Z,28.19
2023-06-07T09:06:05.220Z,28.36
2023-06-07T09:11:07.486Z,28.38
2023-06-07T09:16:12.941Z,28.44
2023-06-07T09:21:27.901Z,28.55
2023-06-07T09:26:40.825Z,28.67
2023-06-07T09:31:43.179Z,29.04
2023-06-07T09:36:59.516Z,29.16
2023-06-07T09:42:01.976Z,29.36
2023-06-07T09:47:05.201Z,29.56
2023-06-07T09:52:15.321Z,29.54
2023-06-07T09:57:27.304Z,29.79
2023-06-07T10:02:31.158Z,30.35
2023-06-07T10:07:44.241Z,30.41
2023-06-07T10:12:49.977Z,30.57
2023-06-07T10:18:12.391Z,30.63
2023-06-07T10:23:22.786Z,30.82
2023-06-07T10:28:47.837Z,30.87
2023-06-07T10:33:52.571Z,30.57
2023-06-07T10:38:56.464Z,31.09
2023-06-07T10:44:03.388Z,31.12
2023-06-07T10:49:05.856Z,31.24
2023-06-07T10:54:09.280Z,31.51
2023-06-07T10:59:14.462Z,31.67
2023-06-07T11:04:41.542Z,31.68
2023-06-07T11:09:44.053Z,31.83
2023-06-07T11:15:29.614Z,31.98
2023-06-07T11:20:40.744Z,32.17
2023-06-07T11:25:42.999Z,32.37
2023-06-07T11:30:45.579Z,32.59
2023-06-07T11:35:48.342Z,32.72
2023-06-07T11:40:51.108Z,32.81
2023-06-07T11:45:57.766Z,32.93
2023-06-07T11:51:01.858Z,33.03
2023-06-07T11:56:04.359Z,33.17
2023-06-07T12:01:07.256Z,33.23
2023-06-07T12:06:09.563Z,33.41
2023-06-07T12:11:11.858Z,33.66
2023-06-07T12:16:14.478Z,33.89
2023-06-07T12:21:17.710Z,34.01
2023-06-07T12:26:27.231Z,33.98
2023-06-07T12:31:30.739Z,34.08
2023-06-07T12:36:38.206Z,34.02
2023-06-07T12:41:41.820Z,34.08
2023-06-07T12:46:44.217Z,34.19
2023-06-07T12:51:46.981Z,34.27
2023-06-07T12:56:49.195Z,34.39
2023-06-07T13:01:51.730Z,34.45
2023-06-07T13:06:54.076Z,34.44
2023-06-07T13:11:56.561Z,34.54
2023-06-07T13:16:58.895Z,34.76
2023-06-07T13:22:01.958Z,34.91
2023-06-07T13:27:11.631Z,35.03
2023-06-07T13:32:13.964Z,35.06
2023-06-07T13:37:16.365Z,35.10
2023-06-07T13:42:22.961Z,35.11
2023-06-07T13:47:29.801Z,35.09
2023-06-07T13:52:34.444Z,34.97
2023-06-07T13:57:38.630Z,34.69
2023-06-07T14:02:43.181Z,34.75
2023-06-07T14:07:45.761Z,34.77
2023-06-07T14:12:48.059Z,34.70
2023-06-07T14:17:50.540Z,34.51
2023-06-07T14:22:53.160Z,34.53
2023-06-07T14:27:57.708Z,34.58
2023-06-07T14:32:59.988Z,34.60
2023-06-07T14:38:02.261Z,34.84
2023-06-07T14:43:04.593Z,35.15
2023-06-07T14:48:07.160Z,35.20
2023-06-07T14:53:09.855Z,35.23
2023-06-07T14:58:12.212Z,34.89
2023-06-07T15:03:14.518Z,34.93
2023-06-07T15:08:17.019Z,34.95
2023-06-07T15:13:20.291Z,35.10
2023-06-07T15:18:22.557Z,35.37
2023-06-07T15:23:25.002Z,35.41
2023-06-07T15:28:28.221Z,35.50
2023-06-07T15:33:30.638Z,35.29
2023-06-07T15:38:38.798Z,35.05
2023-06-07T15:43:44.702Z,34.77
2023-06-07T15:48:51.835Z,34.65
2023-06-07T15:53:54.153Z,34.46
2023-06-07T15:58:56.397Z,34.08
2023-06-07T16:03:58.853Z,33.64
2023-06-07T16:09:09.491Z,33.09
2023-06-07T16:14:12.726Z,32.56
2023-06-07T16:19:14.982Z,32.19
2023-06-07T16:24:17.450Z,31.65
2023-06-07T16:29:19.793Z,31.46
2023-06-07T16:34:22.032Z,30.99
2023-06-07T16:39:24.296Z,30.68
2023-06-07T16:44:26.553Z,30.48
2023-06-07T16:49:28.872Z,30.49
2023-06-07T16:54:31.292Z,30.33
2023-06-07T16:59:36.310Z,30.31
2023-06-07T17:04:38.868Z,30.24
2023-06-07T17:09:41.174Z,30.20
2023-06-07T17:14:46.135Z,29.92
2023-06-07T17:19:50.796Z,29.71
2023-06-07T17:24:53.089Z,29.61
2023-06-07T17:29:55.386Z,29.48
2023-06-07T17:34:57.659Z,29.34
2023-06-07T17:39:59.891Z,29.17
2023-06-07T17:45:05.257Z,29.05
2023-06-07T17:50:09.823Z,28.96
2023-06-07T17:55:12.435Z,28.76
2023-06-07T18:00:15.928Z,28.64
2023-06-07T18:05:18.197Z,28.52
2023-06-07T18:10:21.032Z,28.45
2023-06-07T18:15:23.410Z,28.39
2023-06-07T18:20:25.563Z,28.27
2023-06-07T18:25:27.798Z,28.13
2023-06-07T18:30:30.074Z,28.09
2023-06-07T18:35:32.775Z,27.98
2023-06-07T18:40:34.980Z,28.06
2023-06-07T18:45:37.306Z,27.98
2023-06-07T18:50:39.619Z,27.84
2023-06-07T18:55:41.839Z,27.78
2023-06-07T19:00:44.244Z,27.73
2023-06-07T19:05:46.585Z,27.72
2023-06-07T19:10:48.892Z,27.59
2023-06-07T19:15:51.960Z,27.52
2023-06-07T19:20:54.227Z,27.49
2023-06-07T19:25:56.541Z,27.52
2023-06-07T19:30:59.001Z,27.41
2023-06-07T19:36:01.446Z,27.33
2023-06-07T19:41:03.673Z,27.24
2023-06-07T19:46:05.992Z,27.22
2023-06-07T19:51:08.873Z,27.17
2023-06-07T19:56:11.251Z,27.09
2023-06-07T20:01:13.479Z,27.03
2023-06-07T20:06:15.788Z,27.01
2023-06-07T20:11:20.517Z,26.82
2023-06-07T20:16:23.069Z,26.87
2023-06-07T20:21:28.076Z,26.76
2023-06-07T20:26:30.392Z,26.74
2023-06-07T20:31:32.958Z,26.65
2023-06-07T20:36:35.252Z,26.61
2023-06-07T20:41:37.688Z,26.54
2023-06-07T20:46:39.933Z,26.54
2023-06-07T20:51:42.181Z,26.54
2023-06-07T20:56:44.449Z,26.50
2023-06-07T21:01:46.807Z,26.40
2023-06-07T21:06:49.140Z,26.38
2023-06-07T21:11:51.451Z,26.30
2023-06-07T21:16:53.724Z,25.98
2023-06-07T21:21:55.996Z,26.00
2023-06-07T21:26:58.190Z,25.76
2023-06-07T21:32:00.569Z,25.61
2023-06-07T21:37:02.981Z,25.34
2023-06-07T21:42:06.025Z,25.55
2023-06-07T21:47:08.264Z,25.50
2023-06-07T21:52:10.533Z,25.33
2023-06-07T21:57:13.017Z,25.54
2023-06-07T22:02:15.518Z,25.38
2023-06-07T22:07:18.361Z,25.43
2023-06-07T22:12:21.840Z,25.30
2023-06-07T22:17:25.856Z,25.39
2023-06-07T22:22:28.671Z,25.33
2023-06-07T22:27:31.823Z,25.36
2023-06-07T22:32:34.260Z,25.52
2023-06-07T22:37:40.540Z,25.46
2023-06-07T22:42:42.890Z,25.38
2023-06-07T22:47:47.953Z,25.39
2023-06-07T22:52:50.383Z,25.38
2023-06-07T22:57:52.916Z,25.35
2023-06-07T23:02:55.826Z,25.40
2023-06-07T23:07:58.747Z,25.26
2023-06-07T23:13:04.642Z,25.06
2023-06-07T23:18:06.933Z,25.12
2023-06-07T23:23:11.345Z,24.78
2023-06-07T23:28:13.951Z,24.64
2023-06-07T23:33:16.382Z,24.93
2023-06-07T23:38:18.770Z,24.89
2023-06-07T23:43:21.080Z,24.83
2023-06-07T23:48:26.478Z,24.93
2023-06-07T23:53:28.808Z,24.95
2023-06-07T23:58:31.376Z,24.83
